Airfield :
LOGIN :

Register | Disclaimer

   EN    FR    IT 

 










Legend :    VFR   Marginal VFR   IFR   Intensive IFR   Very Intensive IFR
Visi :
Ceiling :
>= 8 km
>= 3000ft
5 to 8 km
1000 to 3000 ft
1500m to 5 km
500 to 1000 ft
800 to 1500m
200 to 500 ft
< 800m
< 200 ft
Symbols :   Thunderstorms  Fog  Heavy snow  Heavy precipitations  Wind > 20 kt
SIGMETs :     Misc.  Thunderstorms  Icing  Turbulence  Mountain Waves  Volcanic Ashes







- Airport Elevation : 1649 ft
- IATA code : HHN


EDFH - Frankfurt-Hahn Rhineland-Palatinate

CURRENT METAR :
  • 162150Z 25009KT 9999 BKN013 00/00 Q1016

EXPIRED METARs :
  • 162120Z 26009KT 9999 BKN012 00/00 Q1016
  • 162050Z 28007KT 9999 BKN011 00/00 Q1016
  • 162020Z 27009KT 9999 SCT012 00/00 Q1015
  • 161950Z 27008KT 250V310 9999 -SN BKN015 00/00 Q1015
  • 161920Z 26011KT 9999 -SN FEW008 BKN020 01/01 Q1015

TAF TAF EDFH
Valid from the 16 at 18:00 until the 17 at 18:00 UTC


161700Z 1618/1718 28008KT 9999 SCT010 BKN020
PROB40
TEMPO 1618/1709 1300 -SHSN VV002 BKN008TCU
PROB30
TEMPO 1700/1708 0400 FZFG OVC001
TEMPO 1709/1713 3000 BR OVC004
No reported NOTAMs for that airfield.



MET'MAP, your aeronautical weather chart ! - Copyright ORBIFLY December 2007 - Disclaimer

ORBIFLY MET'MAP TEAM :

Programming & Development : Alexandra Zaïnal
Concept & Development : Baudouin d'Aumeries
Co-Development & Prog : Marc-Olivier Méhu
Technical & hardware support : Manuel Goepfert

Contact : metmap@orbifly.com




SOURCES & CREDITS :

   NOAA